sensor_id;sensor_type;location;lat;lon;timestamp;P1;durP1;ratioP1;P2;durP2;ratioP2
33076;SDS011;67066;51.964;5.924;2024-03-06T00:01:40;55.40;;;30.08;;
33076;SDS011;67066;51.964;5.924;2024-03-06T00:04:06;51.00;;;27.17;;
33076;SDS011;67066;51.964;5.924;2024-03-06T00:06:32;47.28;;;28.45;;
33076;SDS011;67066;51.964;5.924;2024-03-06T00:08:59;51.75;;;28.13;;
33076;SDS011;67066;51.964;5.924;2024-03-06T00:11:28;49.47;;;26.20;;
33076;SDS011;67066;51.964;5.924;2024-03-06T00:13:54;55.00;;;28.75;;
33076;SDS011;67066;51.964;5.924;2024-03-06T00:16:20;50.15;;;29.35;;
33076;SDS011;67066;51.964;5.924;2024-03-06T00:18:46;52.88;;;27.25;;
33076;SDS011;67066;51.964;5.924;2024-03-06T00:21:12;50.50;;;28.95;;
33076;SDS011;67066;51.964;5.924;2024-03-06T00:23:38;50.22;;;28.83;;
33076;SDS011;67066;51.964;5.924;2024-03-06T00:26:04;46.92;;;29.10;;
33076;SDS011;67066;51.964;5.924;2024-03-06T00:28:30;50.00;;;27.85;;
33076;SDS011;67066;51.964;5.924;2024-03-06T00:30:57;50.53;;;28.85;;
33076;SDS011;67066;51.964;5.924;2024-03-06T00:33:23;61.90;;;30.83;;
33076;SDS011;67066;51.964;5.924;2024-03-06T00:35:49;52.28;;;26.88;;
33076;SDS011;67066;51.964;5.924;2024-03-06T00:38:15;51.85;;;29.90;;
33076;SDS011;67066;51.964;5.924;2024-03-06T00:40:41;51.55;;;29.05;;
33076;SDS011;67066;51.964;5.924;2024-03-06T00:43:07;49.92;;;28.08;;
33076;SDS011;67066;51.964;5.924;2024-03-06T00:45:33;45.15;;;27.15;;
33076;SDS011;67066;51.964;5.924;2024-03-06T00:47:59;53.22;;;28.45;;
33076;SDS011;67066;51.964;5.924;2024-03-06T00:50:25;49.80;;;27.30;;
33076;SDS011;67066;51.964;5.924;2024-03-06T00:52:51;45.60;;;28.10;;
33076;SDS011;67066;51.964;5.924;2024-03-06T00:55:17;47.15;;;27.25;;
33076;SDS011;67066;51.964;5.924;2024-03-06T00:57:43;51.15;;;27.45;;
33076;SDS011;67066;51.964;5.924;2024-03-06T01:00:10;46.78;;;27.00;;
33076;SDS011;67066;51.964;5.924;2024-03-06T01:02:37;44.88;;;27.60;;
33076;SDS011;67066;51.964;5.924;2024-03-06T01:05:03;50.50;;;26.33;;
33076;SDS011;67066;51.964;5.924;2024-03-06T01:07:30;50.15;;;26.20;;
33076;SDS011;67066;51.964;5.924;2024-03-06T01:09:56;49.35;;;27.42;;
33076;SDS011;67066;51.964;5.924;2024-03-06T01:12:23;41.53;;;25.40;;
33076;SDS011;67066;51.964;5.924;2024-03-06T01:14:49;51.42;;;27.27;;
33076;SDS011;67066;51.964;5.924;2024-03-06T01:17:15;41.33;;;23.80;;
33076;SDS011;67066;51.964;5.924;2024-03-06T01:19:41;39.75;;;24.60;;
33076;SDS011;67066;51.964;5.924;2024-03-06T01:22:11;48.45;;;27.98;;
33076;SDS011;67066;51.964;5.924;2024-03-06T01:24:39;40.35;;;25.73;;
33076;SDS011;67066;51.964;5.924;2024-03-06T01:27:06;43.03;;;26.13;;
33076;SDS011;67066;51.964;5.924;2024-03-06T01:29:32;48.17;;;27.63;;
33076;SDS011;67066;51.964;5.924;2024-03-06T01:31:58;48.47;;;25.83;;
33076;SDS011;67066;51.964;5.924;2024-03-06T01:34:25;53.40;;;28.27;;
33076;SDS011;67066;51.964;5.924;2024-03-06T01:36:51;43.63;;;26.67;;
33076;SDS011;67066;51.964;5.924;2024-03-06T01:39:18;46.10;;;26.38;;
33076;SDS011;67066;51.964;5.924;2024-03-06T01:41:47;44.00;;;25.35;;
33076;SDS011;67066;51.964;5.924;2024-03-06T01:44:17;50.60;;;25.90;;
33076;SDS011;67066;51.964;5.924;2024-03-06T01:46:44;45.80;;;26.55;;
33076;SDS011;67066;51.964;5.924;2024-03-06T01:49:14;44.95;;;25.63;;
33076;SDS011;67066;51.964;5.924;2024-03-06T01:51:41;30.52;;;19.70;;
33076;SDS011;67066;51.964;5.924;2024-03-06T01:54:11;32.92;;;20.77;;
33076;SDS011;67066;51.964;5.924;2024-03-06T01:56:40;41.67;;;23.00;;
33076;SDS011;67066;51.964;5.924;2024-03-06T01:59:10;33.88;;;19.40;;
33076;SDS011;67066;51.964;5.924;2024-03-06T02:01:40;35.85;;;20.98;;
33076;SDS011;67066;51.964;5.924;2024-03-06T02:04:07;44.15;;;23.75;;
33076;SDS011;67066;51.964;5.924;2024-03-06T02:06:40;44.65;;;23.38;;
33076;SDS011;67066;51.964;5.924;2024-03-06T02:09:06;50.22;;;24.65;;
33076;SDS011;67066;51.964;5.924;2024-03-06T02:11:33;41.65;;;24.60;;
33076;SDS011;67066;51.964;5.924;2024-03-06T02:13:59;44.45;;;25.35;;
33076;SDS011;67066;51.964;5.924;2024-03-06T02:16:25;45.65;;;23.45;;
33076;SDS011;67066;51.964;5.924;2024-03-06T02:18:52;43.28;;;23.77;;
33076;SDS011;67066;51.964;5.924;2024-03-06T02:21:20;47.40;;;24.80;;
33076;SDS011;67066;51.964;5.924;2024-03-06T02:23:46;39.35;;;22.73;;
33076;SDS011;67066;51.964;5.924;2024-03-06T02:26:12;48.28;;;25.13;;
33076;SDS011;67066;51.964;5.924;2024-03-06T02:28:38;42.70;;;24.60;;
33076;SDS011;67066;51.964;5.924;2024-03-06T02:31:04;41.70;;;25.15;;
33076;SDS011;67066;51.964;5.924;2024-03-06T02:33:32;48.88;;;26.45;;
33076;SDS011;67066;51.964;5.924;2024-03-06T02:35:59;45.03;;;25.17;;
33076;SDS011;67066;51.964;5.924;2024-03-06T02:38:26;40.95;;;23.75;;
33076;SDS011;67066;51.964;5.924;2024-03-06T02:40:52;48.90;;;26.08;;
33076;SDS011;67066;51.964;5.924;2024-03-06T02:43:18;41.53;;;24.60;;
33076;SDS011;67066;51.964;5.924;2024-03-06T02:45:44;41.08;;;23.52;;
33076;SDS011;67066;51.964;5.924;2024-03-06T02:48:10;50.05;;;24.23;;
33076;SDS011;67066;51.964;5.924;2024-03-06T02:50:36;40.58;;;24.10;;
33076;SDS011;67066;51.964;5.924;2024-03-06T02:53:02;39.10;;;22.48;;
33076;SDS011;67066;51.964;5.924;2024-03-06T02:55:28;42.13;;;22.02;;
33076;SDS011;67066;51.964;5.924;2024-03-06T02:57:54;42.47;;;22.40;;
33076;SDS011;67066;51.964;5.924;2024-03-06T03:00:20;42.28;;;24.27;;
33076;SDS011;67066;51.964;5.924;2024-03-06T03:02:47;35.35;;;20.08;;
33076;SDS011;67066;51.964;5.924;2024-03-06T03:05:13;32.28;;;20.80;;
33076;SDS011;67066;51.964;5.924;2024-03-06T03:07:39;31.88;;;19.67;;
33076;SDS011;67066;51.964;5.924;2024-03-06T03:10:05;41.13;;;21.90;;
33076;SDS011;67066;51.964;5.924;2024-03-06T03:12:32;37.83;;;22.45;;
33076;SDS011;67066;51.964;5.924;2024-03-06T03:14:58;42.92;;;22.90;;
33076;SDS011;67066;51.964;5.924;2024-03-06T03:17:24;39.35;;;21.98;;
33076;SDS011;67066;51.964;5.924;2024-03-06T03:19:50;44.60;;;24.23;;
33076;SDS011;67066;51.964;5.924;2024-03-06T03:22:16;45.55;;;23.42;;
33076;SDS011;67066;51.964;5.924;2024-03-06T03:24:42;40.47;;;23.10;;
33076;SDS011;67066;51.964;5.924;2024-03-06T03:27:08;40.90;;;23.08;;
33076;SDS011;67066;51.964;5.924;2024-03-06T03:29:34;40.90;;;24.65;;
33076;SDS011;67066;51.964;5.924;2024-03-06T03:32:01;40.78;;;24.95;;
33076;SDS011;67066;51.964;5.924;2024-03-06T03:34:27;45.53;;;25.38;;
33076;SDS011;67066;51.964;5.924;2024-03-06T03:36:53;35.53;;;20.67;;
33076;SDS011;67066;51.964;5.924;2024-03-06T03:39:19;38.10;;;21.45;;
33076;SDS011;67066;51.964;5.924;2024-03-06T03:41:47;35.97;;;21.23;;
33076;SDS011;67066;51.964;5.924;2024-03-06T03:44:15;36.33;;;21.75;;
33076;SDS011;67066;51.964;5.924;2024-03-06T03:46:42;35.95;;;21.17;;
33076;SDS011;67066;51.964;5.924;2024-03-06T03:49:08;40.60;;;24.23;;
33076;SDS011;67066;51.964;5.924;2024-03-06T03:51:35;42.92;;;22.92;;
33076;SDS011;67066;51.964;5.924;2024-03-06T03:54:02;37.25;;;20.77;;
33076;SDS011;67066;51.964;5.924;2024-03-06T03:56:29;33.40;;;20.90;;
33076;SDS011;67066;51.964;5.924;2024-03-06T03:58:55;35.85;;;21.35;;
33076;SDS011;67066;51.964;5.924;2024-03-06T04:01:23;40.53;;;21.88;;
33076;SDS011;67066;51.964;5.924;2024-03-06T04:03:49;56.00;;;21.77;;
33076;SDS011;67066;51.964;5.924;2024-03-06T04:06:16;35.35;;;22.33;;
33076;SDS011;67066;51.964;5.924;2024-03-06T04:08:42;40.53;;;22.70;;
33076;SDS011;67066;51.964;5.924;2024-03-06T04:11:08;43.33;;;22.55;;
33076;SDS011;67066;51.964;5.924;2024-03-06T04:13:35;40.83;;;21.85;;
33076;SDS011;67066;51.964;5.924;2024-03-06T04:16:02;33.60;;;21.10;;
33076;SDS011;67066;51.964;5.924;2024-03-06T04:18:31;38.33;;;22.17;;
33076;SDS011;67066;51.964;5.924;2024-03-06T04:21:02;49.22;;;22.73;;
33076;SDS011;67066;51.964;5.924;2024-03-06T04:23:31;33.45;;;20.98;;
33076;SDS011;67066;51.964;5.924;2024-03-06T04:26:01;34.05;;;19.48;;
33076;SDS011;67066;51.964;5.924;2024-03-06T04:28:27;33.13;;;19.52;;
33076;SDS011;67066;51.964;5.924;2024-03-06T04:30:53;53.53;;;21.98;;
33076;SDS011;67066;51.964;5.924;2024-03-06T04:33:20;32.55;;;18.98;;
33076;SDS011;67066;51.964;5.924;2024-03-06T04:35:46;38.85;;;22.40;;
33076;SDS011;67066;51.964;5.924;2024-03-06T04:38:12;32.30;;;20.15;;
33076;SDS011;67066;51.964;5.924;2024-03-06T04:40:38;41.85;;;22.27;;
33076;SDS011;67066;51.964;5.924;2024-03-06T04:43:05;38.05;;;21.58;;
33076;SDS011;67066;51.964;5.924;2024-03-06T04:45:32;38.65;;;21.80;;
33076;SDS011;67066;51.964;5.924;2024-03-06T04:47:58;38.25;;;22.02;;
33076;SDS011;67066;51.964;5.924;2024-03-06T04:50:24;42.50;;;22.00;;
33076;SDS011;67066;51.964;5.924;2024-03-06T04:52:52;37.67;;;20.75;;
33076;SDS011;67066;51.964;5.924;2024-03-06T04:55:19;41.58;;;23.75;;
33076;SDS011;67066;51.964;5.924;2024-03-06T04:57:48;39.72;;;21.67;;
33076;SDS011;67066;51.964;5.924;2024-03-06T05:00:14;35.55;;;20.50;;
33076;SDS011;67066;51.964;5.924;2024-03-06T05:02:41;35.75;;;20.38;;
33076;SDS011;67066;51.964;5.924;2024-03-06T05:05:07;75.80;;;22.08;;
33076;SDS011;67066;51.964;5.924;2024-03-06T05:07:33;53.35;;;25.35;;
33076;SDS011;67066;51.964;5.924;2024-03-06T05:10:00;59.10;;;22.15;;
33076;SDS011;67066;51.964;5.924;2024-03-06T05:12:26;66.13;;;25.20;;
33076;SDS011;67066;51.964;5.924;2024-03-06T05:14:53;53.08;;;21.75;;
33076;SDS011;67066;51.964;5.924;2024-03-06T05:17:20;96.00;;;20.63;;
33076;SDS011;67066;51.964;5.924;2024-03-06T05:19:47;135.63;;;21.55;;
33076;SDS011;67066;51.964;5.924;2024-03-06T05:22:15;87.60;;;19.13;;
33076;SDS011;67066;51.964;5.924;2024-03-06T05:24:42;66.85;;;20.30;;
33076;SDS011;67066;51.964;5.924;2024-03-06T05:27:08;68.85;;;19.40;;
33076;SDS011;67066;51.964;5.924;2024-03-06T05:29:36;77.88;;;20.05;;
33076;SDS011;67066;51.964;5.924;2024-03-06T05:32:04;88.65;;;19.15;;
33076;SDS011;67066;51.964;5.924;2024-03-06T05:34:30;108.78;;;19.05;;
33076;SDS011;67066;51.964;5.924;2024-03-06T05:36:56;73.47;;;21.02;;
33076;SDS011;67066;51.964;5.924;2024-03-06T05:39:22;78.35;;;19.58;;
33076;SDS011;67066;51.964;5.924;2024-03-06T05:41:48;87.97;;;20.08;;
33076;SDS011;67066;51.964;5.924;2024-03-06T05:44:14;194.57;;;24.70;;
33076;SDS011;67066;51.964;5.924;2024-03-06T05:46:41;131.75;;;25.17;;
33076;SDS011;67066;51.964;5.924;2024-03-06T05:49:07;91.60;;;24.27;;
33076;SDS011;67066;51.964;5.924;2024-03-06T05:51:33;77.00;;;21.48;;
33076;SDS011;67066;51.964;5.924;2024-03-06T05:53:59;84.63;;;21.75;;
33076;SDS011;67066;51.964;5.924;2024-03-06T05:56:26;102.97;;;21.10;;
33076;SDS011;67066;51.964;5.924;2024-03-06T05:58:52;102.43;;;21.30;;
33076;SDS011;67066;51.964;5.924;2024-03-06T06:01:20;138.63;;;20.63;;
33076;SDS011;67066;51.964;5.924;2024-03-06T06:03:47;59.38;;;20.00;;
33076;SDS011;67066;51.964;5.924;2024-03-06T06:06:17;86.03;;;19.50;;
33076;SDS011;67066;51.964;5.924;2024-03-06T06:08:44;101.50;;;21.08;;
33076;SDS011;67066;51.964;5.924;2024-03-06T06:11:11;53.80;;;19.10;;
33076;SDS011;67066;51.964;5.924;2024-03-06T06:13:38;51.08;;;21.65;;
33076;SDS011;67066;51.964;5.924;2024-03-06T06:16:05;63.58;;;22.90;;
33076;SDS011;67066;51.964;5.924;2024-03-06T06:18:32;131.25;;;24.85;;
33076;SDS011;67066;51.964;5.924;2024-03-06T06:20:58;79.38;;;23.27;;
33076;SDS011;67066;51.964;5.924;2024-03-06T06:23:25;111.85;;;24.30;;
33076;SDS011;67066;51.964;5.924;2024-03-06T06:25:51;101.88;;;25.10;;
33076;SDS011;67066;51.964;5.924;2024-03-06T06:28:17;125.55;;;26.33;;
33076;SDS011;67066;51.964;5.924;2024-03-06T06:30:43;127.70;;;25.48;;
33076;SDS011;67066;51.964;5.924;2024-03-06T06:33:09;143.63;;;26.67;;
33076;SDS011;67066;51.964;5.924;2024-03-06T06:35:35;69.70;;;23.08;;
33076;SDS011;67066;51.964;5.924;2024-03-06T06:38:01;181.02;;;25.05;;
33076;SDS011;67066;51.964;5.924;2024-03-06T06:40:28;154.00;;;23.55;;
33076;SDS011;67066;51.964;5.924;2024-03-06T06:46:16;66.38;;;22.88;;
33076;SDS011;67066;51.964;5.924;2024-03-06T06:48:43;109.82;;;22.58;;
33076;SDS011;67066;51.964;5.924;2024-03-06T06:51:09;102.47;;;25.17;;
33076;SDS011;67066;51.964;5.924;2024-03-06T06:53:38;94.93;;;24.33;;
33076;SDS011;67066;51.964;5.924;2024-03-06T06:56:07;58.30;;;25.80;;
33076;SDS011;67066;51.964;5.924;2024-03-06T06:58:33;146.73;;;26.42;;
33076;SDS011;67066;51.964;5.924;2024-03-06T07:00:59;63.78;;;23.95;;
33076;SDS011;67066;51.964;5.924;2024-03-06T07:03:25;93.47;;;24.42;;
33076;SDS011;67066;51.964;5.924;2024-03-06T07:05:55;75.45;;;24.58;;
33076;SDS011;67066;51.964;5.924;2024-03-06T07:08:22;112.90;;;25.60;;
33076;SDS011;67066;51.964;5.924;2024-03-06T07:10:49;123.78;;;25.42;;
33076;SDS011;67066;51.964;5.924;2024-03-06T07:13:15;134.07;;;24.08;;
33076;SDS011;67066;51.964;5.924;2024-03-06T07:15:43;144.68;;;26.55;;
33076;SDS011;67066;51.964;5.924;2024-03-06T07:18:09;48.92;;;22.40;;
33076;SDS011;67066;51.964;5.924;2024-03-06T07:20:35;60.22;;;23.00;;
33076;SDS011;67066;51.964;5.924;2024-03-06T07:23:01;123.63;;;24.52;;
33076;SDS011;67066;51.964;5.924;2024-03-06T07:25:27;119.70;;;26.23;;
33076;SDS011;67066;51.964;5.924;2024-03-06T07:27:53;101.80;;;23.75;;
33076;SDS011;67066;51.964;5.924;2024-03-06T07:30:19;139.13;;;23.83;;
33076;SDS011;67066;51.964;5.924;2024-03-06T07:32:46;92.43;;;22.80;;
33076;SDS011;67066;51.964;5.924;2024-03-06T07:35:12;66.45;;;21.23;;
33076;SDS011;67066;51.964;5.924;2024-03-06T07:37:38;142.55;;;24.10;;
33076;SDS011;67066;51.964;5.924;2024-03-06T07:40:05;110.88;;;21.55;;
33076;SDS011;67066;51.964;5.924;2024-03-06T07:42:35;133.07;;;23.23;;
33076;SDS011;67066;51.964;5.924;2024-03-06T07:45:01;174.73;;;26.58;;
33076;SDS011;67066;51.964;5.924;2024-03-06T07:47:27;166.70;;;24.17;;
33076;SDS011;67066;51.964;5.924;2024-03-06T07:49:53;155.05;;;25.38;;
33076;SDS011;67066;51.964;5.924;2024-03-06T07:52:19;139.95;;;27.50;;
33076;SDS011;67066;51.964;5.924;2024-03-06T07:54:46;172.15;;;27.02;;
33076;SDS011;67066;51.964;5.924;2024-03-06T07:57:12;126.00;;;27.05;;
33076;SDS011;67066;51.964;5.924;2024-03-06T07:59:38;160.05;;;26.92;;
33076;SDS011;67066;51.964;5.924;2024-03-06T08:02:05;133.77;;;29.98;;
33076;SDS011;67066;51.964;5.924;2024-03-06T08:04:32;185.80;;;32.90;;
33076;SDS011;67066;51.964;5.924;2024-03-06T08:06:58;325.38;;;35.55;;
33076;SDS011;67066;51.964;5.924;2024-03-06T08:09:24;231.63;;;32.72;;
33076;SDS011;67066;51.964;5.924;2024-03-06T08:11:54;193.38;;;31.17;;
33076;SDS011;67066;51.964;5.924;2024-03-06T08:14:20;256.98;;;32.17;;
33076;SDS011;67066;51.964;5.924;2024-03-06T08:16:46;177.32;;;32.92;;
33076;SDS011;67066;51.964;5.924;2024-03-06T08:19:12;183.23;;;32.78;;
33076;SDS011;67066;51.964;5.924;2024-03-06T08:21:39;145.75;;;32.95;;
33076;SDS011;67066;51.964;5.924;2024-03-06T08:24:06;291.33;;;36.80;;
33076;SDS011;67066;51.964;5.924;2024-03-06T08:26:32;224.32;;;36.58;;
33076;SDS011;67066;51.964;5.924;2024-03-06T08:28:58;201.98;;;36.15;;
33076;SDS011;67066;51.964;5.924;2024-03-06T08:31:24;239.05;;;35.17;;
33076;SDS011;67066;51.964;5.924;2024-03-06T08:33:51;214.05;;;35.15;;
33076;SDS011;67066;51.964;5.924;2024-03-06T08:36:18;209.10;;;36.55;;
33076;SDS011;67066;51.964;5.924;2024-03-06T08:38:45;271.90;;;37.72;;
33076;SDS011;67066;51.964;5.924;2024-03-06T08:41:11;219.88;;;36.08;;
33076;SDS011;67066;51.964;5.924;2024-03-06T08:43:37;153.23;;;35.55;;
33076;SDS011;67066;51.964;5.924;2024-03-06T08:46:03;185.77;;;36.25;;
33076;SDS011;67066;51.964;5.924;2024-03-06T08:48:29;200.60;;;38.63;;
33076;SDS011;67066;51.964;5.924;2024-03-06T08:50:55;214.07;;;41.17;;
33076;SDS011;67066;51.964;5.924;2024-03-06T08:53:22;154.82;;;38.88;;
33076;SDS011;67066;51.964;5.924;2024-03-06T08:55:48;134.30;;;41.00;;
33076;SDS011;67066;51.964;5.924;2024-03-06T08:58:14;150.65;;;42.28;;
33076;SDS011;67066;51.964;5.924;2024-03-06T09:00:40;164.95;;;43.30;;
33076;SDS011;67066;51.964;5.924;2024-03-06T09:03:06;202.65;;;47.75;;
33076;SDS011;67066;51.964;5.924;2024-03-06T09:05:33;278.45;;;46.38;;
33076;SDS011;67066;51.964;5.924;2024-03-06T09:07:59;148.05;;;43.40;;
33076;SDS011;67066;51.964;5.924;2024-03-06T09:10:25;175.57;;;45.15;;
33076;SDS011;67066;51.964;5.924;2024-03-06T09:12:51;144.77;;;43.45;;
33076;SDS011;67066;51.964;5.924;2024-03-06T09:15:17;139.43;;;47.15;;
33076;SDS011;67066;51.964;5.924;2024-03-06T09:17:43;145.38;;;46.03;;
33076;SDS011;67066;51.964;5.924;2024-03-06T09:20:11;153.82;;;49.70;;
33076;SDS011;67066;51.964;5.924;2024-03-06T09:22:37;156.63;;;47.42;;
33076;SDS011;67066;51.964;5.924;2024-03-06T09:25:05;128.02;;;46.33;;
33076;SDS011;67066;51.964;5.924;2024-03-06T09:27:31;154.50;;;49.88;;
33076;SDS011;67066;51.964;5.924;2024-03-06T09:29:58;128.48;;;48.47;;
33076;SDS011;67066;51.964;5.924;2024-03-06T09:32:24;130.32;;;47.70;;
33076;SDS011;67066;51.964;5.924;2024-03-06T09:34:52;132.13;;;45.67;;
33076;SDS011;67066;51.964;5.924;2024-03-06T09:37:18;139.35;;;47.90;;
33076;SDS011;67066;51.964;5.924;2024-03-06T09:39:45;146.60;;;49.58;;
33076;SDS011;67066;51.964;5.924;2024-03-06T09:42:13;126.18;;;47.47;;
33076;SDS011;67066;51.964;5.924;2024-03-06T09:44:40;131.25;;;47.38;;
33076;SDS011;67066;51.964;5.924;2024-03-06T09:47:06;138.10;;;50.20;;
33076;SDS011;67066;51.964;5.924;2024-03-06T09:49:36;129.75;;;46.67;;
33076;SDS011;67066;51.964;5.924;2024-03-06T09:52:02;144.55;;;46.83;;
33076;SDS011;67066;51.964;5.924;2024-03-06T09:54:30;116.85;;;48.03;;
33076;SDS011;67066;51.964;5.924;2024-03-06T09:56:56;115.03;;;46.17;;
33076;SDS011;67066;51.964;5.924;2024-03-06T09:59:24;117.30;;;46.65;;
33076;SDS011;67066;51.964;5.924;2024-03-06T10:01:53;122.43;;;44.15;;
33076;SDS011;67066;51.964;5.924;2024-03-06T10:04:27;127.93;;;48.95;;
33076;SDS011;67066;51.964;5.924;2024-03-06T10:06:54;132.80;;;47.28;;
33076;SDS011;67066;51.964;5.924;2024-03-06T10:09:22;118.38;;;45.30;;
33076;SDS011;67066;51.964;5.924;2024-03-06T10:11:48;109.85;;;45.78;;
33076;SDS011;67066;51.964;5.924;2024-03-06T10:14:15;110.38;;;42.88;;
33076;SDS011;67066;51.964;5.924;2024-03-06T10:16:53;109.47;;;43.17;;
33076;SDS011;67066;51.964;5.924;2024-03-06T10:19:24;125.80;;;45.35;;
33076;SDS011;67066;51.964;5.924;2024-03-06T10:21:54;119.63;;;44.58;;
33076;SDS011;67066;51.964;5.924;2024-03-06T10:24:24;112.03;;;43.22;;
33076;SDS011;67066;51.964;5.924;2024-03-06T10:26:51;123.68;;;46.67;;
33076;SDS011;67066;51.964;5.924;2024-03-06T10:29:20;120.03;;;46.13;;
33076;SDS011;67066;51.964;5.924;2024-03-06T10:31:51;115.40;;;43.28;;
33076;SDS011;67066;51.964;5.924;2024-03-06T10:44:25;114.68;;;43.92;;
33076;SDS011;67066;51.964;5.924;2024-03-06T10:46:55;109.82;;;44.63;;
33076;SDS011;67066;51.964;5.924;2024-03-06T10:49:26;105.45;;;43.88;;
33076;SDS011;67066;51.964;5.924;2024-03-06T10:52:03;107.10;;;44.83;;
33076;SDS011;67066;51.964;5.924;2024-03-06T10:54:34;109.68;;;44.70;;
33076;SDS011;67066;51.964;5.924;2024-03-06T10:57:02;110.03;;;43.78;;
33076;SDS011;67066;51.964;5.924;2024-03-06T10:59:29;100.38;;;43.03;;
33076;SDS011;67066;51.964;5.924;2024-03-06T11:01:55;105.05;;;43.28;;
33076;SDS011;67066;51.964;5.924;2024-03-06T11:04:23;102.53;;;42.42;;
33076;SDS011;67066;51.964;5.924;2024-03-06T11:06:54;91.03;;;40.67;;
33076;SDS011;67066;51.964;5.924;2024-03-06T11:09:27;91.55;;;42.67;;
33076;SDS011;67066;51.964;5.924;2024-03-06T11:11:57;90.65;;;42.45;;
33076;SDS011;67066;51.964;5.924;2024-03-06T11:14:24;95.13;;;38.83;;
33076;SDS011;67066;51.964;5.924;2024-03-06T11:16:57;87.55;;;39.50;;
33076;SDS011;67066;51.964;5.924;2024-03-06T11:19:26;94.95;;;40.38;;
33076;SDS011;67066;51.964;5.924;2024-03-06T11:21:52;92.10;;;41.25;;
33076;SDS011;67066;51.964;5.924;2024-03-06T11:24:22;106.80;;;40.88;;
33076;SDS011;67066;51.964;5.924;2024-03-06T11:26:49;99.30;;;41.85;;
33076;SDS011;67066;51.964;5.924;2024-03-06T11:29:17;90.43;;;40.17;;
33076;SDS011;67066;51.964;5.924;2024-03-06T11:32:00;87.70;;;38.50;;
33076;SDS011;67066;51.964;5.924;2024-03-06T11:34:33;103.40;;;41.90;;
33076;SDS011;67066;51.964;5.924;2024-03-06T11:37:03;93.22;;;39.53;;
33076;SDS011;67066;51.964;5.924;2024-03-06T11:39:36;90.07;;;39.75;;
33076;SDS011;67066;51.964;5.924;2024-03-06T11:42:04;78.25;;;37.03;;
33076;SDS011;67066;51.964;5.924;2024-03-06T11:44:33;77.55;;;37.88;;
33076;SDS011;67066;51.964;5.924;2024-03-06T11:47:00;89.15;;;40.75;;
33076;SDS011;67066;51.964;5.924;2024-03-06T11:49:34;83.10;;;38.05;;
33076;SDS011;67066;51.964;5.924;2024-03-06T11:52:03;88.35;;;39.80;;
33076;SDS011;67066;51.964;5.924;2024-03-06T11:54:31;94.32;;;38.90;;
33076;SDS011;67066;51.964;5.924;2024-03-06T11:56:59;87.78;;;39.65;;
33076;SDS011;67066;51.964;5.924;2024-03-06T11:59:27;67.40;;;33.92;;
33076;SDS011;67066;51.964;5.924;2024-03-06T12:01:55;68.07;;;36.28;;
33076;SDS011;67066;51.964;5.924;2024-03-06T12:04:23;76.60;;;36.20;;
33076;SDS011;67066;51.964;5.924;2024-03-06T12:06:50;68.68;;;36.40;;
33076;SDS011;67066;51.964;5.924;2024-03-06T12:09:17;73.82;;;36.03;;
33076;SDS011;67066;51.964;5.924;2024-03-06T12:11:43;77.55;;;37.38;;
33076;SDS011;67066;51.964;5.924;2024-03-06T12:14:19;68.28;;;36.72;;
33076;SDS011;67066;51.964;5.924;2024-03-06T12:16:56;76.22;;;35.42;;
33076;SDS011;67066;51.964;5.924;2024-03-06T12:19:25;73.20;;;33.67;;
33076;SDS011;67066;51.964;5.924;2024-03-06T12:21:53;69.93;;;34.47;;
33076;SDS011;67066;51.964;5.924;2024-03-06T12:24:19;71.95;;;36.28;;
33076;SDS011;67066;51.964;5.924;2024-03-06T12:26:46;73.30;;;36.40;;
33076;SDS011;67066;51.964;5.924;2024-03-06T12:29:18;79.25;;;36.42;;
33076;SDS011;67066;51.964;5.924;2024-03-06T12:31:45;76.63;;;36.42;;
33076;SDS011;67066;51.964;5.924;2024-03-06T12:34:14;79.55;;;38.55;;
33076;SDS011;67066;51.964;5.924;2024-03-06T12:36:43;75.13;;;36.15;;
33076;SDS011;67066;51.964;5.924;2024-03-06T12:39:10;75.03;;;36.38;;
33076;SDS011;67066;51.964;5.924;2024-03-06T12:41:39;73.60;;;37.42;;
33076;SDS011;67066;51.964;5.924;2024-03-06T12:44:05;80.55;;;40.40;;
33076;SDS011;67066;51.964;5.924;2024-03-06T12:46:35;84.28;;;36.17;;
33076;SDS011;67066;51.964;5.924;2024-03-06T12:49:01;70.13;;;38.58;;
33076;SDS011;67066;51.964;5.924;2024-03-06T12:51:27;81.35;;;37.85;;
33076;SDS011;67066;51.964;5.924;2024-03-06T12:53:53;75.82;;;37.40;;
33076;SDS011;67066;51.964;5.924;2024-03-06T12:56:19;75.50;;;38.95;;
33076;SDS011;67066;51.964;5.924;2024-03-06T12:58:45;76.88;;;36.90;;
33076;SDS011;67066;51.964;5.924;2024-03-06T13:01:11;74.85;;;35.95;;
33076;SDS011;67066;51.964;5.924;2024-03-06T13:03:37;77.57;;;36.30;;
33076;SDS011;67066;51.964;5.924;2024-03-06T13:06:04;67.57;;;34.28;;
33076;SDS011;67066;51.964;5.924;2024-03-06T13:08:31;75.65;;;36.47;;
33076;SDS011;67066;51.964;5.924;2024-03-06T13:10:57;65.18;;;35.22;;
33076;SDS011;67066;51.964;5.924;2024-03-06T13:13:24;73.70;;;35.63;;
33076;SDS011;67066;51.964;5.924;2024-03-06T13:15:51;82.63;;;36.58;;
33076;SDS011;67066;51.964;5.924;2024-03-06T13:18:17;69.53;;;34.58;;
33076;SDS011;67066;51.964;5.924;2024-03-06T13:20:44;74.45;;;35.65;;
33076;SDS011;67066;51.964;5.924;2024-03-06T13:23:10;70.28;;;35.40;;
33076;SDS011;67066;51.964;5.924;2024-03-06T13:25:37;73.47;;;36.15;;
33076;SDS011;67066;51.964;5.924;2024-03-06T13:28:03;76.30;;;36.03;;
33076;SDS011;67066;51.964;5.924;2024-03-06T13:30:30;63.00;;;33.20;;
33076;SDS011;67066;51.964;5.924;2024-03-06T13:32:57;65.97;;;32.67;;
33076;SDS011;67066;51.964;5.924;2024-03-06T13:35:24;61.00;;;29.58;;
33076;SDS011;67066;51.964;5.924;2024-03-06T13:37:50;67.70;;;31.45;;
33076;SDS011;67066;51.964;5.924;2024-03-06T13:40:16;46.00;;;23.38;;
33076;SDS011;67066;51.964;5.924;2024-03-06T13:42:43;48.03;;;23.38;;
33076;SDS011;67066;51.964;5.924;2024-03-06T13:45:09;48.28;;;25.70;;
33076;SDS011;67066;51.964;5.924;2024-03-06T13:47:39;54.50;;;28.80;;
33076;SDS011;67066;51.964;5.924;2024-03-06T13:50:13;51.40;;;26.38;;
33076;SDS011;67066;51.964;5.924;2024-03-06T13:52:40;41.08;;;23.85;;
33076;SDS011;67066;51.964;5.924;2024-03-06T13:55:07;43.53;;;24.55;;
33076;SDS011;67066;51.964;5.924;2024-03-06T13:57:34;54.40;;;28.15;;
33076;SDS011;67066;51.964;5.924;2024-03-06T14:00:04;51.35;;;26.58;;
33076;SDS011;67066;51.964;5.924;2024-03-06T14:02:32;50.92;;;26.33;;
33076;SDS011;67066;51.964;5.924;2024-03-06T14:04:58;44.10;;;22.60;;
33076;SDS011;67066;51.964;5.924;2024-03-06T14:07:25;33.92;;;20.63;;
33076;SDS011;67066;51.964;5.924;2024-03-06T14:09:51;25.80;;;15.38;;
33076;SDS011;67066;51.964;5.924;2024-03-06T14:12:17;28.85;;;17.63;;
33076;SDS011;67066;51.964;5.924;2024-03-06T14:14:43;31.90;;;16.92;;
33076;SDS011;67066;51.964;5.924;2024-03-06T14:17:12;28.75;;;15.18;;
33076;SDS011;67066;51.964;5.924;2024-03-06T14:19:39;28.52;;;14.05;;
33076;SDS011;67066;51.964;5.924;2024-03-06T14:22:08;31.17;;;16.48;;
33076;SDS011;67066;51.964;5.924;2024-03-06T14:24:34;35.45;;;16.63;;
33076;SDS011;67066;51.964;5.924;2024-03-06T14:27:03;32.30;;;16.02;;
33076;SDS011;67066;51.964;5.924;2024-03-06T14:29:31;33.55;;;16.52;;
33076;SDS011;67066;51.964;5.924;2024-03-06T14:31:57;35.67;;;17.75;;